createdAt,value
2023-03-19T00:01:38.847Z,7.50
2023-03-19T00:04:08.144Z,7.50
2023-03-19T00:06:36.933Z,7.50
2023-03-19T00:09:05.734Z,7.50
2023-03-19T00:11:34.892Z,7.50
2023-03-19T00:14:03.551Z,7.50
2023-03-19T00:16:33.623Z,7.60
2023-03-19T00:19:02.938Z,7.60
2023-03-19T00:21:32.581Z,7.60
2023-03-19T00:24:02.539Z,7.60
2023-03-19T00:26:31.949Z,7.60
2023-03-19T00:29:01.534Z,7.70
2023-03-19T00:31:31.131Z,7.80
2023-03-19T00:34:01.601Z,7.80
2023-03-19T00:36:31.792Z,7.80
2023-03-19T00:39:00.359Z,7.90
2023-03-19T00:41:29.118Z,7.80
2023-03-19T00:43:58.936Z,7.70
2023-03-19T00:46:27.905Z,7.70
2023-03-19T00:48:56.724Z,7.60
2023-03-19T00:51:27.603Z,7.50
2023-03-19T00:53:56.549Z,7.60
2023-03-19T00:56:25.163Z,7.60
2023-03-19T00:58:53.952Z,7.70
2023-03-19T01:01:22.526Z,7.80
2023-03-19T01:03:51.647Z,7.80
2023-03-19T01:06:20.822Z,7.80
2023-03-19T01:08:51.043Z,7.90
2023-03-19T01:11:19.558Z,7.90
2023-03-19T01:13:48.298Z,8.00
2023-03-19T01:16:16.844Z,8.00
2023-03-19T01:18:46.076Z,8.00
2023-03-19T01:21:14.792Z,7.90
2023-03-19T01:23:43.912Z,7.90
2023-03-19T01:26:13.826Z,7.80
2023-03-19T01:28:43.564Z,7.80
2023-03-19T01:31:12.418Z,7.80
2023-03-19T01:33:41.034Z,7.80
2023-03-19T01:36:11.361Z,7.90
2023-03-19T01:38:40.164Z,7.90
2023-03-19T01:41:08.907Z,7.90
2023-03-19T01:43:39.191Z,7.90
2023-03-19T01:46:11.212Z,8.00
2023-03-19T01:48:42.984Z,8.00
2023-03-19T01:51:13.575Z,8.00
2023-03-19T01:53:45.109Z,8.00
2023-03-19T01:56:16.967Z,8.00
2023-03-19T01:58:49.967Z,8.00
2023-03-19T02:01:20.692Z,8.00
2023-03-19T02:03:51.243Z,8.00
2023-03-19T02:06:22.166Z,8.00
2023-03-19T02:08:53.295Z,8.00
2023-03-19T02:11:22.561Z,8.00
2023-03-19T02:13:52.597Z,7.90
2023-03-19T02:16:22.185Z,7.80
2023-03-19T02:18:50.731Z,7.90
2023-03-19T02:21:21.736Z,7.80
2023-03-19T02:23:58.383Z,7.80
2023-03-19T02:26:30.888Z,7.70
2023-03-19T02:28:59.515Z,7.70
2023-03-19T02:31:28.223Z,7.60
2023-03-19T02:34:02.141Z,7.60
2023-03-19T02:36:34.151Z,7.50
2023-03-19T02:39:05.708Z,7.50
2023-03-19T02:41:38.038Z,7.50
2023-03-19T02:44:07.603Z,7.60
2023-03-19T02:46:36.202Z,7.60
2023-03-19T02:49:05.450Z,7.60
2023-03-19T02:51:34.010Z,7.70
2023-03-19T02:54:02.782Z,7.70
2023-03-19T02:56:31.467Z,7.70
2023-03-19T02:59:01.658Z,7.80
2023-03-19T03:01:30.755Z,7.80
2023-03-19T03:03:59.537Z,7.80
2023-03-19T03:06:28.183Z,7.80
2023-03-19T03:08:56.733Z,7.80
2023-03-19T03:11:25.436Z,7.80
2023-03-19T03:13:55.624Z,7.80
2023-03-19T03:16:26.568Z,7.80
2023-03-19T03:18:55.381Z,7.80
2023-03-19T03:21:24.196Z,7.80
2023-03-19T03:23:53.567Z,7.80
2023-03-19T03:26:22.151Z,7.80
2023-03-19T03:28:50.802Z,7.80
2023-03-19T03:31:20.154Z,7.80
2023-03-19T03:33:51.947Z,7.80
2023-03-19T03:36:20.820Z,7.80
2023-03-19T03:38:49.415Z,7.80
2023-03-19T03:41:18.033Z,7.80
2023-03-19T03:43:46.576Z,7.80
2023-03-19T03:46:15.404Z,7.90
2023-03-19T03:48:43.922Z,7.90
2023-03-19T03:51:13.900Z,7.90
2023-03-19T03:53:42.544Z,7.90
2023-03-19T03:56:11.386Z,7.90
2023-03-19T03:58:39.826Z,8.00
2023-03-19T04:01:09.042Z,8.00
2023-03-19T04:03:37.753Z,8.00
2023-03-19T04:06:07.249Z,8.00
2023-03-19T04:08:37.197Z,8.00
2023-03-19T04:11:09.060Z,8.00
2023-03-19T04:13:37.899Z,7.90
2023-03-19T04:16:08.098Z,7.90
2023-03-19T04:18:36.922Z,8.00
2023-03-19T04:21:06.675Z,7.90
2023-03-19T04:23:36.667Z,7.90
2023-03-19T04:26:07.585Z,7.90
2023-03-19T04:28:36.473Z,8.00
2023-03-19T04:31:06.251Z,8.00
2023-03-19T04:33:35.725Z,8.00
2023-03-19T04:36:05.049Z,8.00
2023-03-19T04:38:33.877Z,8.10
2023-03-19T04:41:04.326Z,8.10
2023-03-19T04:43:32.919Z,8.10
2023-03-19T04:46:02.008Z,8.20
2023-03-19T04:48:30.740Z,8.20
2023-03-19T04:50:59.656Z,8.20
2023-03-19T04:53:28.521Z,8.20
2023-03-19T04:55:57.509Z,8.20
2023-03-19T04:58:27.792Z,8.30
2023-03-19T05:00:56.246Z,8.30
2023-03-19T05:03:24.778Z,8.40
2023-03-19T05:05:55.312Z,8.40
2023-03-19T05:08:23.791Z,8.40
2023-03-19T05:10:52.678Z,8.40
2023-03-19T05:13:21.839Z,8.50
2023-03-19T05:15:55.708Z,8.50
2023-03-19T05:18:24.391Z,8.50
2023-03-19T05:20:54.746Z,8.60
2023-03-19T05:23:23.536Z,8.60
2023-03-19T05:25:52.047Z,8.60
2023-03-19T05:28:20.744Z,8.70
2023-03-19T05:30:49.259Z,8.70
2023-03-19T05:33:19.175Z,8.70
2023-03-19T05:35:47.989Z,8.80
2023-03-19T05:38:16.688Z,8.80
2023-03-19T05:40:45.236Z,8.80
2023-03-19T05:43:14.284Z,8.90
2023-03-19T05:45:43.707Z,8.90
2023-03-19T05:48:12.200Z,8.90
2023-03-19T05:50:42.779Z,9.00
2023-03-19T05:53:11.985Z,9.00
2023-03-19T05:55:40.846Z,9.10
2023-03-19T05:58:09.369Z,9.10
2023-03-19T06:00:37.928Z,9.10
2023-03-19T06:03:06.736Z,9.20
2023-03-19T06:05:35.468Z,9.20
2023-03-19T06:08:07.605Z,9.30
2023-03-19T06:10:37.246Z,9.30
2023-03-19T06:13:06.626Z,9.40
2023-03-19T06:15:35.555Z,9.40
2023-03-19T06:18:04.437Z,9.40
2023-03-19T06:20:34.974Z,9.40
2023-03-19T06:23:08.058Z,9.50
2023-03-19T06:25:36.894Z,9.50
2023-03-19T06:28:05.769Z,9.50
2023-03-19T06:30:34.626Z,9.50
2023-03-19T06:33:03.344Z,9.60
2023-03-19T06:35:32.386Z,9.60
2023-03-19T06:38:00.944Z,9.60
2023-03-19T06:40:30.965Z,9.70
2023-03-19T06:42:59.864Z,9.70
2023-03-19T06:45:28.447Z,9.70
2023-03-19T06:47:57.348Z,9.70
2023-03-19T06:50:26.596Z,9.70
2023-03-19T06:52:55.648Z,9.80
2023-03-19T06:55:24.195Z,9.80
2023-03-19T06:57:54.136Z,9.80
2023-03-19T07:00:23.929Z,9.80
2023-03-19T07:02:52.738Z,9.90
2023-03-19T07:05:21.689Z,9.90
2023-03-19T07:07:50.314Z,9.90
2023-03-19T07:10:21.241Z,10.00
2023-03-19T07:12:50.081Z,10.10
2023-03-19T07:15:21.609Z,10.10
2023-03-19T07:17:50.618Z,10.20
2023-03-19T07:20:19.451Z,10.20
2023-03-19T07:22:48.018Z,10.30
2023-03-19T07:25:16.785Z,10.30
2023-03-19T07:27:46.290Z,10.30
2023-03-19T07:30:16.190Z,10.30
2023-03-19T07:32:47.178Z,10.30
2023-03-19T07:35:15.758Z,10.40
2023-03-19T07:37:44.594Z,10.40
2023-03-19T07:40:13.695Z,10.40
2023-03-19T07:42:44.954Z,10.50
2023-03-19T07:45:14.571Z,10.50
2023-03-19T07:47:43.162Z,10.60
2023-03-19T07:50:14.366Z,10.60
2023-03-19T07:52:42.846Z,10.70
2023-03-19T07:55:11.905Z,10.70
2023-03-19T07:57:40.942Z,10.70
2023-03-19T08:00:10.857Z,10.80
2023-03-19T08:02:40.158Z,10.80
2023-03-19T08:05:09.778Z,10.80
2023-03-19T08:07:40.005Z,10.90
2023-03-19T08:10:10.182Z,10.90
2023-03-19T08:12:41.290Z,10.90
2023-03-19T08:15:11.890Z,10.90
2023-03-19T08:17:40.603Z,11.00
2023-03-19T08:20:11.432Z,11.00
2023-03-19T08:22:42.950Z,10.90
2023-03-19T08:25:12.492Z,10.90
2023-03-19T08:27:41.777Z,10.90
2023-03-19T08:30:12.868Z,10.90
2023-03-19T08:32:41.515Z,10.90
2023-03-19T08:35:11.006Z,10.90
2023-03-19T08:37:41.164Z,10.90
2023-03-19T08:40:12.131Z,10.80
2023-03-19T08:42:45.023Z,10.80
2023-03-19T08:45:16.833Z,10.80
2023-03-19T08:47:46.107Z,10.90
2023-03-19T08:50:14.973Z,10.90
2023-03-19T08:52:45.199Z,11.00
2023-03-19T08:55:14.000Z,11.10
2023-03-19T08:57:43.501Z,11.10
2023-03-19T09:00:14.025Z,11.20
2023-03-19T09:02:42.700Z,11.20
2023-03-19T09:05:12.557Z,11.30
2023-03-19T09:07:42.038Z,11.30
2023-03-19T09:10:12.708Z,11.30
2023-03-19T09:12:41.345Z,11.30
2023-03-19T09:15:15.052Z,11.20
2023-03-19T09:17:45.226Z,11.20
2023-03-19T09:20:14.809Z,11.30
2023-03-19T09:22:44.194Z,11.50
2023-03-19T09:25:14.591Z,11.50
2023-03-19T09:27:43.244Z,11.60
2023-03-19T09:30:16.434Z,11.50
2023-03-19T09:32:45.215Z,11.50
2023-03-19T09:35:14.005Z,11.50
2023-03-19T09:37:43.253Z,11.50
2023-03-19T09:40:22.643Z,11.40
2023-03-19T09:43:03.179Z,11.50
2023-03-19T09:45:32.146Z,11.60
2023-03-19T09:48:06.478Z,11.70
2023-03-19T09:50:36.662Z,11.80
2023-03-19T09:53:13.272Z,12.00
2023-03-19T09:55:46.039Z,12.20
2023-03-19T09:58:20.411Z,12.30
2023-03-19T10:00:53.918Z,12.50
2023-03-19T10:03:43.674Z,12.60
2023-03-19T10:06:31.270Z,12.60
2023-03-19T10:09:16.534Z,12.70
2023-03-19T10:12:04.460Z,12.80
2023-03-19T10:15:04.280Z,12.80
2023-03-19T10:17:38.596Z,12.70
2023-03-19T10:20:11.961Z,12.50
2023-03-19T10:22:46.408Z,12.40
2023-03-19T10:25:21.701Z,12.40
2023-03-19T10:27:57.447Z,12.40
2023-03-19T10:30:29.589Z,12.40
2023-03-19T10:33:13.697Z,12.50
2023-03-19T10:35:47.226Z,12.60
2023-03-19T10:38:22.402Z,12.60
2023-03-19T10:41:20.751Z,12.70
2023-03-19T10:43:57.799Z,12.80
2023-03-19T10:46:26.744Z,12.70
2023-03-19T10:48:55.707Z,12.80
2023-03-19T10:51:29.785Z,12.90
2023-03-19T10:54:02.520Z,12.80
2023-03-19T10:56:36.317Z,12.80
2023-03-19T10:59:22.891Z,12.70
2023-03-19T11:01:57.790Z,12.60
2023-03-19T11:04:28.995Z,12.50
2023-03-19T11:07:03.970Z,12.40
2023-03-19T11:09:41.709Z,12.40
2023-03-19T11:12:24.526Z,12.30
2023-03-19T11:14:57.713Z,12.20
2023-03-19T11:17:29.885Z,12.10
2023-03-19T11:20:00.061Z,12.10
2023-03-19T11:22:31.905Z,12.10
2023-03-19T11:25:04.277Z,12.10
2023-03-19T11:27:37.511Z,12.10
2023-03-19T11:30:18.739Z,12.00
2023-03-19T11:33:30.064Z,11.90
2023-03-19T11:36:06.914Z,11.90
2023-03-19T11:38:49.113Z,12.00
2023-03-19T11:41:25.003Z,12.10
2023-03-19T11:44:01.271Z,12.10
2023-03-19T11:46:43.443Z,12.10
2023-03-19T11:49:33.008Z,12.10
2023-03-19T11:52:10.106Z,12.00
2023-03-19T11:54:52.122Z,11.90
2023-03-19T11:57:29.957Z,11.90
2023-03-19T12:00:17.128Z,11.90
2023-03-19T12:03:20.313Z,11.80
2023-03-19T12:05:58.439Z,11.90
2023-03-19T12:08:39.892Z,11.90
2023-03-19T12:11:27.273Z,11.80
2023-03-19T12:14:14.415Z,11.90
2023-03-19T12:17:04.601Z,11.80
2023-03-19T12:20:00.887Z,11.80
2023-03-19T12:22:44.398Z,11.90
2023-03-19T12:25:30.389Z,11.90
2023-03-19T12:28:05.663Z,11.90
2023-03-19T12:30:39.004Z,11.80
2023-03-19T12:33:31.022Z,11.90
2023-03-19T12:36:03.590Z,12.00
2023-03-19T12:38:39.175Z,12.10
2023-03-19T12:41:12.847Z,12.20
2023-03-19T12:43:51.570Z,12.30
2023-03-19T12:46:26.267Z,12.20
2023-03-19T12:49:00.316Z,12.20
2023-03-19T12:51:36.933Z,12.30
2023-03-19T12:54:10.068Z,12.40
2023-03-19T12:56:45.833Z,12.30
2023-03-19T12:59:29.382Z,12.40
2023-03-19T13:02:03.658Z,12.30
2023-03-19T13:04:39.423Z,12.20
2023-03-19T13:07:23.307Z,12.30
2023-03-19T13:10:02.603Z,12.30
2023-03-19T13:12:37.386Z,12.40
2023-03-19T13:15:12.261Z,12.50
2023-03-19T13:17:50.392Z,12.70
2023-03-19T13:20:25.986Z,12.80
2023-03-19T13:23:01.177Z,12.90
2023-03-19T13:25:35.549Z,12.90
2023-03-19T13:28:09.517Z,12.90
2023-03-19T13:30:39.964Z,13.10
2023-03-19T13:33:18.511Z,13.20
2023-03-19T13:35:51.121Z,13.30
2023-03-19T13:38:26.402Z,13.30
2023-03-19T13:40:56.798Z,13.20
2023-03-19T13:43:56.005Z,13.20
2023-03-19T13:46:38.651Z,13.30
2023-03-19T13:49:34.019Z,13.30
2023-03-19T13:52:25.898Z,13.40
2023-03-19T13:54:58.116Z,13.40
2023-03-19T13:57:37.805Z,13.30
2023-03-19T14:00:45.591Z,13.30
2023-03-19T14:03:23.723Z,13.40
2023-03-19T14:05:55.139Z,13.40
2023-03-19T14:08:26.208Z,13.40
2023-03-19T14:10:59.513Z,13.40
2023-03-19T14:13:33.579Z,13.40
2023-03-19T14:16:16.844Z,13.40
2023-03-19T14:18:46.285Z,13.40
2023-03-19T14:21:21.782Z,13.30
2023-03-19T14:23:57.806Z,13.20
2023-03-19T14:26:30.319Z,13.20
2023-03-19T14:29:03.774Z,13.20
2023-03-19T14:31:43.048Z,13.20
2023-03-19T14:34:25.245Z,13.30
2023-03-19T14:36:59.939Z,13.20
2023-03-19T14:39:31.970Z,13.20
2023-03-19T14:42:07.703Z,13.30
2023-03-19T14:45:19.220Z,13.40
2023-03-19T14:48:14.158Z,13.40
2023-03-19T14:51:10.359Z,13.40
2023-03-19T14:53:42.753Z,13.40
2023-03-19T14:56:16.902Z,13.50
2023-03-19T14:58:55.713Z,13.70
2023-03-19T15:01:27.345Z,13.70
2023-03-19T15:04:00.305Z,13.50
2023-03-19T15:06:35.397Z,13.50
2023-03-19T15:09:07.645Z,13.50
2023-03-19T15:11:52.302Z,13.40
2023-03-19T15:14:43.764Z,13.30
2023-03-19T15:17:20.464Z,13.20
2023-03-19T15:19:49.945Z,13.20
2023-03-19T15:22:23.097Z,13.10
2023-03-19T15:24:52.584Z,13.00
2023-03-19T15:27:24.000Z,12.90
2023-03-19T15:30:03.232Z,13.00
2023-03-19T15:32:54.452Z,13.00
2023-03-19T15:35:35.152Z,13.00
2023-03-19T15:38:09.194Z,13.00
2023-03-19T15:40:39.529Z,13.00
2023-03-19T15:43:13.492Z,13.00
2023-03-19T15:45:47.931Z,12.90
2023-03-19T15:48:22.144Z,12.90
2023-03-19T15:50:53.866Z,13.00
2023-03-19T15:53:25.997Z,13.00
2023-03-19T15:55:56.766Z,13.10
2023-03-19T15:58:27.910Z,13.20
2023-03-19T16:01:01.040Z,13.20
2023-03-19T16:03:35.786Z,13.30
2023-03-19T16:06:07.692Z,13.30
2023-03-19T16:08:38.135Z,13.30
2023-03-19T16:11:27.031Z,13.30
2023-03-19T16:13:59.560Z,13.20
2023-03-19T16:16:32.727Z,13.20
2023-03-19T16:19:02.554Z,13.30
2023-03-19T16:21:36.487Z,13.20
2023-03-19T16:24:15.476Z,13.20
2023-03-19T16:26:45.775Z,13.20
2023-03-19T16:29:24.253Z,13.20
2023-03-19T16:31:58.297Z,13.20
2023-03-19T16:34:39.223Z,13.10
2023-03-19T16:37:33.602Z,13.00
2023-03-19T16:40:03.952Z,13.00
2023-03-19T16:42:40.580Z,12.80
2023-03-19T16:45:22.628Z,12.80
2023-03-19T16:47:54.481Z,12.60
2023-03-19T16:50:29.585Z,12.50
2023-03-19T16:53:00.021Z,12.40
2023-03-19T16:55:33.945Z,12.30
2023-03-19T16:58:06.640Z,12.30
2023-03-19T17:00:36.073Z,12.20
2023-03-19T17:03:12.517Z,12.20
2023-03-19T17:05:41.665Z,12.20
2023-03-19T17:08:11.739Z,12.10
2023-03-19T17:10:45.070Z,12.10
2023-03-19T17:13:20.054Z,12.10
2023-03-19T17:15:51.188Z,12.00
2023-03-19T17:18:24.459Z,12.00
2023-03-19T17:20:56.402Z,11.90
2023-03-19T17:23:27.304Z,11.90
2023-03-19T17:25:56.580Z,11.80
2023-03-19T17:28:25.751Z,11.80
2023-03-19T17:30:54.999Z,11.80
2023-03-19T17:33:28.145Z,11.80
2023-03-19T17:35:59.116Z,11.80
2023-03-19T17:38:33.553Z,11.80
2023-03-19T17:41:02.823Z,11.80
2023-03-19T17:43:32.112Z,11.80
2023-03-19T17:46:01.777Z,11.70
2023-03-19T17:48:32.154Z,11.70
2023-03-19T17:51:04.657Z,11.70
2023-03-19T17:53:34.871Z,11.70
2023-03-19T17:56:03.679Z,11.60
2023-03-19T17:58:32.916Z,11.60
2023-03-19T18:01:02.837Z,11.60
2023-03-19T18:03:35.600Z,11.50
2023-03-19T18:06:07.299Z,11.50
2023-03-19T18:08:36.430Z,11.40
2023-03-19T18:11:05.515Z,11.40
2023-03-19T18:13:34.519Z,11.40
2023-03-19T18:16:05.419Z,11.30
2023-03-19T18:18:36.345Z,11.20
2023-03-19T18:21:06.405Z,11.20
2023-03-19T18:23:35.750Z,11.10
2023-03-19T18:26:04.744Z,11.10
2023-03-19T18:28:34.656Z,11.10
2023-03-19T18:31:05.827Z,11.00
2023-03-19T18:33:37.409Z,11.00
2023-03-19T18:36:10.222Z,10.90
2023-03-19T18:38:39.430Z,10.80
2023-03-19T18:41:09.091Z,10.80
2023-03-19T18:43:38.077Z,10.70
2023-03-19T18:46:11.500Z,10.70
2023-03-19T18:48:42.964Z,10.60
2023-03-19T18:51:14.156Z,10.60
2023-03-19T18:53:43.535Z,10.50
2023-03-19T18:56:21.878Z,10.50
2023-03-19T18:58:52.716Z,10.50
2023-03-19T19:01:32.038Z,10.50
2023-03-19T19:04:06.344Z,10.60
2023-03-19T19:06:47.227Z,10.60
2023-03-19T19:09:20.794Z,10.70
2023-03-19T19:11:51.181Z,10.80
2023-03-19T19:14:23.796Z,10.80
2023-03-19T19:16:54.614Z,10.80
2023-03-19T19:19:27.909Z,10.80
2023-03-19T19:21:57.462Z,10.80
2023-03-19T19:24:26.506Z,10.80
2023-03-19T19:26:56.978Z,10.80
2023-03-19T19:29:28.734Z,10.80
2023-03-19T19:31:57.852Z,10.80
2023-03-19T19:34:28.684Z,10.80
2023-03-19T19:37:00.588Z,10.80
2023-03-19T19:39:31.926Z,10.80
2023-03-19T19:42:33.712Z,10.80
2023-03-19T19:45:08.189Z,10.80
2023-03-19T19:47:37.107Z,10.70
2023-03-19T19:50:20.557Z,10.80
2023-03-19T19:52:50.048Z,10.80
2023-03-19T19:55:22.104Z,10.80
2023-03-19T19:57:52.561Z,10.80
2023-03-19T20:00:30.423Z,10.70
2023-03-19T20:03:03.950Z,10.70
2023-03-19T20:05:40.111Z,10.70
2023-03-19T20:08:15.029Z,10.70
2023-03-19T20:10:51.962Z,10.70
2023-03-19T20:13:29.092Z,10.60
2023-03-19T20:16:01.645Z,10.70
2023-03-19T20:18:38.861Z,10.70
2023-03-19T20:21:13.620Z,10.70
2023-03-19T20:23:46.293Z,10.60
2023-03-19T20:26:22.849Z,10.60
2023-03-19T20:29:31.020Z,10.60
2023-03-19T20:32:01.548Z,10.60
2023-03-19T20:34:39.029Z,10.60
2023-03-19T20:37:17.717Z,10.50
2023-03-19T20:39:47.290Z,10.60
2023-03-19T20:42:18.431Z,10.60
2023-03-19T20:45:04.296Z,10.60
2023-03-19T20:47:36.831Z,10.60
2023-03-19T20:50:24.656Z,10.60
2023-03-19T20:53:01.463Z,10.60
2023-03-19T20:55:36.015Z,10.60
2023-03-19T20:58:14.632Z,10.60
2023-03-19T21:00:44.929Z,10.60
2023-03-19T21:03:20.261Z,10.60
2023-03-19T21:05:52.222Z,10.60
2023-03-19T21:08:32.980Z,10.60
2023-03-19T21:11:05.183Z,10.60
2023-03-19T21:13:35.105Z,10.60
2023-03-19T21:16:07.968Z,10.60
2023-03-19T21:18:37.967Z,10.50
2023-03-19T21:21:12.842Z,10.50
2023-03-19T21:23:50.687Z,10.50
2023-03-19T21:26:28.501Z,10.40
2023-03-19T21:29:06.141Z,10.40
2023-03-19T21:31:35.843Z,10.40
2023-03-19T21:34:08.192Z,10.30
2023-03-19T21:36:37.029Z,10.20
2023-03-19T21:39:09.852Z,10.10
2023-03-19T21:41:43.093Z,10.10
2023-03-19T21:44:22.064Z,10.00
2023-03-19T21:46:51.500Z,10.00
2023-03-19T21:49:22.486Z,9.90
2023-03-19T21:51:51.747Z,9.90
2023-03-19T21:54:22.027Z,9.80
2023-03-19T21:56:51.151Z,9.80
2023-03-19T21:59:24.282Z,9.80
2023-03-19T22:01:54.088Z,9.70
2023-03-19T22:04:22.804Z,9.70
2023-03-19T22:06:51.504Z,9.70
2023-03-19T22:09:25.625Z,9.80
2023-03-19T22:11:54.315Z,9.80
2023-03-19T22:14:28.610Z,9.80
2023-03-19T22:16:59.638Z,9.80
2023-03-19T22:19:29.376Z,9.90
2023-03-19T22:21:58.138Z,9.90
2023-03-19T22:24:28.209Z,9.90
2023-03-19T22:26:59.385Z,9.90
2023-03-19T22:29:28.275Z,9.90
2023-03-19T22:31:57.947Z,9.90
2023-03-19T22:34:29.082Z,9.90
2023-03-19T22:36:58.882Z,9.90
2023-03-19T22:39:29.635Z,9.90
2023-03-19T22:41:58.576Z,9.90
2023-03-19T22:44:30.111Z,9.80
2023-03-19T22:47:00.922Z,9.80
2023-03-19T22:49:30.491Z,9.80
2023-03-19T22:51:59.905Z,9.90
2023-03-19T22:54:30.869Z,9.90
2023-03-19T22:56:59.567Z,9.90
2023-03-19T22:59:29.751Z,9.90
2023-03-19T23:01:59.248Z,9.90
2023-03-19T23:04:30.770Z,9.90
2023-03-19T23:07:01.348Z,9.90
2023-03-19T23:09:33.282Z,9.90
2023-03-19T23:12:03.368Z,9.90
2023-03-19T23:14:32.839Z,9.80
2023-03-19T23:17:04.000Z,9.80
2023-03-19T23:19:34.089Z,9.80
2023-03-19T23:22:05.093Z,9.80
2023-03-19T23:24:35.442Z,9.80
2023-03-19T23:27:05.887Z,9.80
2023-03-19T23:29:39.941Z,9.80
2023-03-19T23:32:08.773Z,9.80
2023-03-19T23:34:54.134Z,9.80
2023-03-19T23:37:26.337Z,9.70
2023-03-19T23:39:56.491Z,9.70
2023-03-19T23:42:29.761Z,9.70
2023-03-19T23:45:01.506Z,9.70
2023-03-19T23:47:31.519Z,9.70
2023-03-19T23:50:00.248Z,9.60
2023-03-19T23:52:29.141Z,9.60
2023-03-19T23:54:59.764Z,9.60
2023-03-19T23:57:30.253Z,9.70
2023-03-19T23:59:59.436Z,9.60
